sensor_id;sensor_type;location;lat;lon;timestamp;pressure;altitude;pressure_sealevel;temperature;humidity
51986;BME280;38002;53.296;6.600;2023-04-10T00:03:42;102468.72;;;6.94;73.96
51986;BME280;38002;53.296;6.600;2023-04-10T00:08:43;102459.81;;;6.92;74.31
51986;BME280;38002;53.296;6.600;2023-04-10T00:13:43;102452.97;;;6.87;74.28
51986;BME280;38002;53.296;6.600;2023-04-10T00:18:44;102450.47;;;6.83;74.36
51986;BME280;38002;53.296;6.600;2023-04-10T00:23:44;102450.69;;;6.80;74.14
51986;BME280;38002;53.296;6.600;2023-04-10T00:28:45;102446.31;;;6.78;74.78
51986;BME280;38002;53.296;6.600;2023-04-10T00:33:45;102436.66;;;6.74;74.76
51986;BME280;38002;53.296;6.600;2023-04-10T00:38:46;102425.97;;;6.72;74.88
51986;BME280;38002;53.296;6.600;2023-04-10T00:43:47;102432.44;;;6.70;74.86
51986;BME280;38002;53.296;6.600;2023-04-10T00:48:47;102423.75;;;6.65;74.87
51986;BME280;38002;53.296;6.600;2023-04-10T00:53:49;102411.31;;;6.62;75.18
51986;BME280;38002;53.296;6.600;2023-04-10T00:58:50;102410.66;;;6.59;75.09
51986;BME280;38002;53.296;6.600;2023-04-10T01:03:51;102395.59;;;6.55;74.88
51986;BME280;38002;53.296;6.600;2023-04-10T01:09:14;102385.94;;;6.51;75.86
51986;BME280;38002;53.296;6.600;2023-04-10T01:14:36;102379.19;;;6.44;76.20
51986;BME280;38002;53.296;6.600;2023-04-10T01:20:11;102381.31;;;6.38;76.38
51986;BME280;38002;53.296;6.600;2023-04-10T01:30:35;102372.16;;;6.27;75.76
51986;BME280;38002;53.296;6.600;2023-04-10T01:35:37;102365.31;;;6.21;76.16
51986;BME280;38002;53.296;6.600;2023-04-10T01:40:38;102362.22;;;6.13;79.12
51986;BME280;38002;53.296;6.600;2023-04-10T01:45:41;102345.34;;;6.10;76.17
51986;BME280;38002;53.296;6.600;2023-04-10T01:50:44;102344.69;;;6.06;76.30
51986;BME280;38002;53.296;6.600;2023-04-10T01:55:46;102344.97;;;6.02;76.11
51986;BME280;38002;53.296;6.600;2023-04-10T02:00:47;102339.84;;;5.97;76.81
51986;BME280;38002;53.296;6.600;2023-04-10T02:06:00;102337.38;;;5.94;76.37
51986;BME280;38002;53.296;6.600;2023-04-10T02:16:13;102324.25;;;5.88;76.75
51986;BME280;38002;53.296;6.600;2023-04-10T02:21:16;102322.66;;;5.84;76.84
51986;BME280;38002;53.296;6.600;2023-04-10T02:26:17;102318.34;;;5.81;77.02
51986;BME280;38002;53.296;6.600;2023-04-10T02:31:17;102317.66;;;5.78;76.94
51986;BME280;38002;53.296;6.600;2023-04-10T02:36:18;102303.38;;;5.76;76.73
51986;BME280;38002;53.296;6.600;2023-04-10T02:41:18;102297.19;;;5.74;76.91
51986;BME280;38002;53.296;6.600;2023-04-10T02:46:18;102298.34;;;5.70;76.77
51986;BME280;38002;53.296;6.600;2023-04-10T02:51:19;102288.84;;;5.64;77.14
51986;BME280;38002;53.296;6.600;2023-04-10T02:56:19;102290.75;;;5.62;77.16
51986;BME280;38002;53.296;6.600;2023-04-10T03:01:20;102290.06;;;5.59;77.29
51986;BME280;38002;53.296;6.600;2023-04-10T03:06:21;102290.28;;;5.56;77.38
51986;BME280;38002;53.296;6.600;2023-04-10T03:11:25;102291.31;;;5.53;77.21
51986;BME280;38002;53.296;6.600;2023-04-10T03:16:26;102286.13;;;5.50;77.20
51986;BME280;38002;53.296;6.600;2023-04-10T03:21:26;102289.88;;;5.47;77.11
51986;BME280;38002;53.296;6.600;2023-04-10T03:26:27;102285.44;;;5.46;77.13
51986;BME280;38002;53.296;6.600;2023-04-10T03:31:28;102281.00;;;5.45;77.15
51986;BME280;38002;53.296;6.600;2023-04-10T03:36:28;102277.44;;;5.45;77.17
51986;BME280;38002;53.296;6.600;2023-04-10T03:41:29;102287.56;;;5.41;77.05
51986;BME280;38002;53.296;6.600;2023-04-10T03:46:30;102286.69;;;5.41;77.38
51986;BME280;38002;53.296;6.600;2023-04-10T03:51:30;102280.53;;;5.39;77.49
51986;BME280;38002;53.296;6.600;2023-04-10T03:56:31;102264.13;;;5.28;76.99
51986;BME280;38002;53.296;6.600;2023-04-10T04:01:31;102272.13;;;5.29;77.56
51986;BME280;38002;53.296;6.600;2023-04-10T04:06:32;102249.09;;;5.24;77.39
51986;BME280;38002;53.296;6.600;2023-04-10T04:11:33;102247.34;;;5.23;77.49
51986;BME280;38002;53.296;6.600;2023-04-10T04:16:33;102242.75;;;5.25;77.44
51986;BME280;38002;53.296;6.600;2023-04-10T04:21:34;102234.56;;;5.26;77.29
51986;BME280;38002;53.296;6.600;2023-04-10T04:26:35;102224.53;;;5.28;77.29
51986;BME280;38002;53.296;6.600;2023-04-10T04:31:35;102220.78;;;5.31;77.11
51986;BME280;38002;53.296;6.600;2023-04-10T04:36:36;102214.34;;;5.33;77.26
51986;BME280;38002;53.296;6.600;2023-04-10T04:41:36;102201.59;;;5.35;76.98
51986;BME280;38002;53.296;6.600;2023-04-10T04:46:37;102204.00;;;5.40;77.35
51986;BME280;38002;53.296;6.600;2023-04-10T04:51:37;102194.75;;;5.44;77.79
51986;BME280;38002;53.296;6.600;2023-04-10T04:56:37;102199.19;;;5.45;77.96
51986;BME280;38002;53.296;6.600;2023-04-10T05:01:38;102191.97;;;5.45;77.08
51986;BME280;38002;53.296;6.600;2023-04-10T05:06:38;102190.06;;;5.47;77.97
51986;BME280;38002;53.296;6.600;2023-04-10T05:11:39;102191.78;;;5.48;77.65
51986;BME280;38002;53.296;6.600;2023-04-10T05:16:40;102188.72;;;5.55;77.30
51986;BME280;38002;53.296;6.600;2023-04-10T05:21:41;102194.69;;;5.60;77.50
51986;BME280;38002;53.296;6.600;2023-04-10T05:26:41;102186.09;;;5.67;77.73
51986;BME280;38002;53.296;6.600;2023-04-10T05:31:41;102195.34;;;5.77;77.42
51986;BME280;38002;53.296;6.600;2023-04-10T05:36:42;102197.50;;;5.86;77.20
51986;BME280;38002;53.296;6.600;2023-04-10T05:41:43;102189.75;;;5.95;77.66
51986;BME280;38002;53.296;6.600;2023-04-10T05:46:43;102188.06;;;6.06;76.91
51986;BME280;38002;53.296;6.600;2023-04-10T05:51:44;102189.22;;;6.16;76.92
51986;BME280;38002;53.296;6.600;2023-04-10T05:56:49;102185.13;;;6.23;77.52
51986;BME280;38002;53.296;6.600;2023-04-10T06:01:49;102185.56;;;6.30;77.20
51986;BME280;38002;53.296;6.600;2023-04-10T06:06:50;102173.28;;;6.38;77.50
51986;BME280;38002;53.296;6.600;2023-04-10T06:11:51;102161.84;;;6.48;77.44
51986;BME280;38002;53.296;6.600;2023-04-10T06:16:52;102162.00;;;6.59;77.23
51986;BME280;38002;53.296;6.600;2023-04-10T06:21:53;102161.16;;;6.71;77.57
51986;BME280;38002;53.296;6.600;2023-04-10T06:26:53;102148.53;;;6.84;77.42
51986;BME280;38002;53.296;6.600;2023-04-10T06:31:53;102142.72;;;7.03;76.87
51986;BME280;38002;53.296;6.600;2023-04-10T06:36:54;102141.53;;;7.19;77.55
51986;BME280;38002;53.296;6.600;2023-04-10T06:41:54;102132.53;;;7.32;76.50
51986;BME280;38002;53.296;6.600;2023-04-10T06:46:55;102124.63;;;7.41;76.82
51986;BME280;38002;53.296;6.600;2023-04-10T06:51:55;102129.22;;;7.52;77.28
51986;BME280;38002;53.296;6.600;2023-04-10T06:56:56;102116.78;;;7.62;76.82
51986;BME280;38002;53.296;6.600;2023-04-10T07:01:57;102125.03;;;7.84;76.87
51986;BME280;38002;53.296;6.600;2023-04-10T07:06:58;102063.50;;;7.86;76.02
51986;BME280;38002;53.296;6.600;2023-04-10T07:11:58;102096.25;;;8.31;75.56
51986;BME280;38002;53.296;6.600;2023-04-10T07:16:59;102101.22;;;8.37;75.60
51986;BME280;38002;53.296;6.600;2023-04-10T07:22:00;102088.13;;;8.42;75.84
51986;BME280;38002;53.296;6.600;2023-04-10T07:27:00;102084.00;;;8.60;75.51
51986;BME280;38002;53.296;6.600;2023-04-10T07:32:01;102070.41;;;8.84;74.86
51986;BME280;38002;53.296;6.600;2023-04-10T07:37:01;102058.31;;;9.10;74.90
51986;BME280;38002;53.296;6.600;2023-04-10T07:42:02;102052.03;;;9.32;73.85
51986;BME280;38002;53.296;6.600;2023-04-10T07:47:02;102038.91;;;9.48;73.47
51986;BME280;38002;53.296;6.600;2023-04-10T07:52:03;102026.38;;;9.68;73.96
51986;BME280;38002;53.296;6.600;2023-04-10T07:57:03;102015.81;;;9.96;73.21
51986;BME280;38002;53.296;6.600;2023-04-10T08:02:04;102009.69;;;10.36;72.13
51986;BME280;38002;53.296;6.600;2023-04-10T08:07:04;102008.22;;;10.73;72.08
51986;BME280;38002;53.296;6.600;2023-04-10T08:12:05;101983.09;;;10.90;71.21
51986;BME280;38002;53.296;6.600;2023-04-10T08:17:05;101983.59;;;11.15;69.85
51986;BME280;38002;53.296;6.600;2023-04-10T08:22:06;101968.47;;;11.31;69.26
51986;BME280;38002;53.296;6.600;2023-04-10T08:27:06;101960.75;;;11.36;66.00
51986;BME280;38002;53.296;6.600;2023-04-10T08:32:07;101959.63;;;11.58;68.70
51986;BME280;38002;53.296;6.600;2023-04-10T08:37:07;101957.69;;;11.99;68.50
51986;BME280;38002;53.296;6.600;2023-04-10T08:42:11;101948.59;;;12.27;67.52
51986;BME280;38002;53.296;6.600;2023-04-10T08:47:13;101938.88;;;12.52;66.04
51986;BME280;38002;53.296;6.600;2023-04-10T08:52:17;101933.63;;;12.78;65.88
51986;BME280;38002;53.296;6.600;2023-04-10T08:57:20;101941.00;;;12.95;66.59
51986;BME280;38002;53.296;6.600;2023-04-10T09:02:21;101928.41;;;13.21;65.45
51986;BME280;38002;53.296;6.600;2023-04-10T09:07:22;101915.78;;;13.38;64.63
51986;BME280;38002;53.296;6.600;2023-04-10T09:12:22;101900.13;;;13.57;63.29
51986;BME280;38002;53.296;6.600;2023-04-10T09:17:23;101900.81;;;13.59;63.18
51986;BME280;38002;53.296;6.600;2023-04-10T09:22:32;101890.50;;;13.53;56.09
51986;BME280;38002;53.296;6.600;2023-04-10T09:27:34;101879.47;;;13.81;61.40
51986;BME280;38002;53.296;6.600;2023-04-10T09:32:44;101881.09;;;13.91;60.84
51986;BME280;38002;53.296;6.600;2023-04-10T09:37:45;101857.69;;;13.89;61.61
51986;BME280;38002;53.296;6.600;2023-04-10T09:42:46;101848.81;;;13.95;62.05
51986;BME280;38002;53.296;6.600;2023-04-10T09:48:05;101839.50;;;14.05;59.13
51986;BME280;38002;53.296;6.600;2023-04-10T09:53:17;101824.31;;;14.37;56.63
51986;BME280;38002;53.296;6.600;2023-04-10T09:58:18;101815.34;;;14.52;54.98
51986;BME280;38002;53.296;6.600;2023-04-10T10:03:19;101800.34;;;14.73;60.81
51986;BME280;38002;53.296;6.600;2023-04-10T10:08:20;101797.34;;;14.92;60.59
51986;BME280;38002;53.296;6.600;2023-04-10T10:23:50;101754.06;;;15.76;56.29
51986;BME280;38002;53.296;6.600;2023-04-10T10:28:54;101747.56;;;15.77;56.95
51986;BME280;38002;53.296;6.600;2023-04-10T10:33:55;101730.59;;;15.74;56.95
51986;BME280;38002;53.296;6.600;2023-04-10T10:44:28;101702.53;;;15.56;55.19
51986;BME280;38002;53.296;6.600;2023-04-10T10:49:59;101696.34;;;15.37;53.11
51986;BME280;38002;53.296;6.600;2023-04-10T11:11:17;101674.78;;;14.86;48.82
51986;BME280;38002;53.296;6.600;2023-04-10T11:21:33;101655.25;;;14.81;52.90
51986;BME280;38002;53.296;6.600;2023-04-10T11:31:35;101631.13;;;14.84;53.31
51986;BME280;38002;53.296;6.600;2023-04-10T11:36:40;101618.28;;;14.85;53.13
51986;BME280;38002;53.296;6.600;2023-04-10T11:41:42;101622.94;;;14.92;51.11
51986;BME280;38002;53.296;6.600;2023-04-10T11:46:44;101605.44;;;15.02;53.51
51986;BME280;38002;53.296;6.600;2023-04-10T11:51:50;101581.34;;;14.97;52.92
51986;BME280;38002;53.296;6.600;2023-04-10T11:57:05;101586.28;;;14.93;49.77
51986;BME280;38002;53.296;6.600;2023-04-10T12:02:11;101563.31;;;15.03;52.90
51986;BME280;38002;53.296;6.600;2023-04-10T12:07:13;101552.53;;;15.17;52.28
51986;BME280;38002;53.296;6.600;2023-04-10T12:12:14;101543.19;;;15.42;52.04
51986;BME280;38002;53.296;6.600;2023-04-10T12:17:15;101535.38;;;15.78;50.86
51986;BME280;38002;53.296;6.600;2023-04-10T12:22:16;101525.03;;;16.11;52.59
51986;BME280;38002;53.296;6.600;2023-04-10T12:27:26;101525.00;;;16.57;51.43
51986;BME280;38002;53.296;6.600;2023-04-10T12:32:27;101499.84;;;16.91;50.29
51986;BME280;38002;53.296;6.600;2023-04-10T12:37:50;101493.28;;;16.77;43.96
51986;BME280;38002;53.296;6.600;2023-04-10T12:42:51;101469.25;;;16.56;49.13
51986;BME280;38002;53.296;6.600;2023-04-10T12:47:51;101467.34;;;16.19;47.79
51986;BME280;38002;53.296;6.600;2023-04-10T12:53:05;101474.47;;;16.06;46.73
51986;BME280;38002;53.296;6.600;2023-04-10T12:58:17;101451.16;;;15.87;46.58
51986;BME280;38002;53.296;6.600;2023-04-10T13:03:19;101439.78;;;15.67;49.40
51986;BME280;38002;53.296;6.600;2023-04-10T13:08:20;101434.53;;;15.58;49.81
51986;BME280;38002;53.296;6.600;2023-04-10T13:13:21;101422.34;;;15.60;50.30
51986;BME280;38002;53.296;6.600;2023-04-10T13:18:21;101415.84;;;15.61;50.29
51986;BME280;38002;53.296;6.600;2023-04-10T13:23:22;101416.03;;;15.60;50.55
51986;BME280;38002;53.296;6.600;2023-04-10T13:28:22;101402.69;;;15.57;49.35
51986;BME280;38002;53.296;6.600;2023-04-10T13:33:23;101388.84;;;15.50;50.60
51986;BME280;38002;53.296;6.600;2023-04-10T13:38:24;101359.69;;;15.49;50.51
51986;BME280;38002;53.296;6.600;2023-04-10T13:43:24;101347.88;;;15.49;50.98
51986;BME280;38002;53.296;6.600;2023-04-10T13:48:25;101343.13;;;15.42;50.61
51986;BME280;38002;53.296;6.600;2023-04-10T13:53:26;101335.28;;;15.39;50.35
51986;BME280;38002;53.296;6.600;2023-04-10T13:58:26;101326.00;;;15.40;51.83
51986;BME280;38002;53.296;6.600;2023-04-10T14:03:30;101308.91;;;15.38;51.83
51986;BME280;38002;53.296;6.600;2023-04-10T14:08:31;101280.16;;;15.34;51.68
51986;BME280;38002;53.296;6.600;2023-04-10T14:13:31;101266.16;;;15.29;52.06
51986;BME280;38002;53.296;6.600;2023-04-10T14:18:32;101275.59;;;15.27;52.54
51986;BME280;38002;53.296;6.600;2023-04-10T14:23:32;101263.47;;;15.21;51.88
51986;BME280;38002;53.296;6.600;2023-04-10T14:28:33;101265.53;;;15.19;52.34
51986;BME280;38002;53.296;6.600;2023-04-10T14:33:34;101250.47;;;15.15;52.74
51986;BME280;38002;53.296;6.600;2023-04-10T14:38:34;101235.81;;;15.08;52.66
51986;BME280;38002;53.296;6.600;2023-04-10T14:43:36;101226.94;;;15.06;53.41
51986;BME280;38002;53.296;6.600;2023-04-10T14:48:37;101225.31;;;14.97;52.96
51986;BME280;38002;53.296;6.600;2023-04-10T14:53:38;101212.50;;;14.89;53.27
51986;BME280;38002;53.296;6.600;2023-04-10T14:58:38;101224.38;;;14.82;52.86
51986;BME280;38002;53.296;6.600;2023-04-10T15:03:39;101225.22;;;14.82;53.09
51986;BME280;38002;53.296;6.600;2023-04-10T15:08:40;101208.47;;;14.77;53.55
51986;BME280;38002;53.296;6.600;2023-04-10T15:13:40;101221.69;;;14.74;53.11
51986;BME280;38002;53.296;6.600;2023-04-10T15:18:41;101207.34;;;14.64;53.98
51986;BME280;38002;53.296;6.600;2023-04-10T15:23:41;101216.03;;;14.44;55.81
51986;BME280;38002;53.296;6.600;2023-04-10T15:28:42;101200.94;;;14.09;57.32
51986;BME280;38002;53.296;6.600;2023-04-10T15:33:42;101193.53;;;13.71;59.63
51986;BME280;38002;53.296;6.600;2023-04-10T15:38:43;101166.94;;;13.41;60.14
51986;BME280;38002;53.296;6.600;2023-04-10T15:43:43;101176.84;;;13.17;60.72
51986;BME280;38002;53.296;6.600;2023-04-10T15:48:44;101169.81;;;12.99;61.66
51986;BME280;38002;53.296;6.600;2023-04-10T15:53:47;101144.91;;;12.86;62.01
51986;BME280;38002;53.296;6.600;2023-04-10T15:58:47;101144.38;;;12.66;65.78
51986;BME280;38002;53.296;6.600;2023-04-10T16:03:48;101120.34;;;12.61;64.24
51986;BME280;38002;53.296;6.600;2023-04-10T16:08:50;101121.53;;;12.51;64.95
51986;BME280;38002;53.296;6.600;2023-04-10T16:13:51;101095.06;;;12.43;64.41
51986;BME280;38002;53.296;6.600;2023-04-10T16:18:51;101097.78;;;12.27;65.90
51986;BME280;38002;53.296;6.600;2023-04-10T16:23:53;101102.72;;;12.15;68.08
51986;BME280;38002;53.296;6.600;2023-04-10T16:28:53;101092.66;;;12.08;66.96
51986;BME280;38002;53.296;6.600;2023-04-10T16:33:54;101093.94;;;11.96;67.83
51986;BME280;38002;53.296;6.600;2023-04-10T16:38:55;101096.66;;;11.88;67.55
51986;BME280;38002;53.296;6.600;2023-04-10T16:43:56;101115.84;;;11.78;68.91
51986;BME280;38002;53.296;6.600;2023-04-10T16:48:56;101108.78;;;11.67;68.86
51986;BME280;38002;53.296;6.600;2023-04-10T16:53:57;101101.22;;;11.53;70.48
51986;BME280;38002;53.296;6.600;2023-04-10T16:58:57;101082.66;;;11.49;71.71
51986;BME280;38002;53.296;6.600;2023-04-10T17:03:57;101080.38;;;11.36;73.89
51986;BME280;38002;53.296;6.600;2023-04-10T17:08:58;101060.53;;;11.18;75.95
51986;BME280;38002;53.296;6.600;2023-04-10T17:13:58;101045.72;;;11.12;74.52
51986;BME280;38002;53.296;6.600;2023-04-10T17:18:59;101019.94;;;10.99;78.22
51986;BME280;38002;53.296;6.600;2023-04-10T17:23:59;101005.53;;;10.80;77.33
51986;BME280;38002;53.296;6.600;2023-04-10T17:29:00;101011.69;;;10.82;76.85
51986;BME280;38002;53.296;6.600;2023-04-10T17:34:00;101015.56;;;10.80;80.15
51986;BME280;38002;53.296;6.600;2023-04-10T17:39:01;100998.72;;;10.76;77.24
51986;BME280;38002;53.296;6.600;2023-04-10T17:44:01;101002.63;;;10.74;77.27
51986;BME280;38002;53.296;6.600;2023-04-10T17:49:02;101003.63;;;10.73;83.81
51986;BME280;38002;53.296;6.600;2023-04-10T17:54:03;101001.38;;;10.68;80.13
51986;BME280;38002;53.296;6.600;2023-04-10T17:59:03;101008.16;;;10.64;82.36
51986;BME280;38002;53.296;6.600;2023-04-10T18:04:04;101003.03;;;10.61;82.05
51986;BME280;38002;53.296;6.600;2023-04-10T18:09:05;101019.03;;;10.64;88.09
51986;BME280;38002;53.296;6.600;2023-04-10T18:14:05;101023.63;;;10.64;85.22
51986;BME280;38002;53.296;6.600;2023-04-10T18:19:06;101009.88;;;10.65;84.85
51986;BME280;38002;53.296;6.600;2023-04-10T18:24:07;101004.59;;;10.64;84.28
51986;BME280;38002;53.296;6.600;2023-04-10T18:29:10;100982.13;;;10.62;84.25
51986;BME280;38002;53.296;6.600;2023-04-10T18:34:10;100980.91;;;10.56;85.13
51986;BME280;38002;53.296;6.600;2023-04-10T18:39:11;100949.44;;;10.54;85.21
51986;BME280;38002;53.296;6.600;2023-04-10T18:44:11;100953.66;;;10.48;84.81
51986;BME280;38002;53.296;6.600;2023-04-10T18:49:12;100947.19;;;10.49;83.40
51986;BME280;38002;53.296;6.600;2023-04-10T18:54:12;100946.84;;;10.44;83.58
51986;BME280;38002;53.296;6.600;2023-04-10T18:59:13;100957.41;;;10.47;82.91
51986;BME280;38002;53.296;6.600;2023-04-10T19:04:13;100933.56;;;10.41;84.45
51986;BME280;38002;53.296;6.600;2023-04-10T19:09:14;100927.25;;;10.40;86.05
51986;BME280;38002;53.296;6.600;2023-04-10T19:14:15;100916.72;;;10.37;84.95
51986;BME280;38002;53.296;6.600;2023-04-10T19:19:16;100921.63;;;10.34;85.76
51986;BME280;38002;53.296;6.600;2023-04-10T19:24:16;100905.63;;;10.31;84.57
51986;BME280;38002;53.296;6.600;2023-04-10T19:29:17;100909.19;;;10.31;85.09
51986;BME280;38002;53.296;6.600;2023-04-10T19:34:17;100892.72;;;10.33;88.48
51986;BME280;38002;53.296;6.600;2023-04-10T19:39:18;100896.44;;;10.32;86.35
51986;BME280;38002;53.296;6.600;2023-04-10T19:44:18;100907.31;;;10.32;84.02
51986;BME280;38002;53.296;6.600;2023-04-10T19:49:18;100904.59;;;10.32;86.44
51986;BME280;38002;53.296;6.600;2023-04-10T19:54:19;100885.56;;;10.32;88.74
51986;BME280;38002;53.296;6.600;2023-04-10T19:59:19;100852.28;;;10.30;86.75
51986;BME280;38002;53.296;6.600;2023-04-10T20:04:20;100850.56;;;10.29;85.99
51986;BME280;38002;53.296;6.600;2023-04-10T20:09:21;100852.44;;;10.28;86.31
51986;BME280;38002;53.296;6.600;2023-04-10T20:14:21;100857.88;;;10.28;89.66
51986;BME280;38002;53.296;6.600;2023-04-10T20:19:22;100857.53;;;10.31;89.10
51986;BME280;38002;53.296;6.600;2023-04-10T20:24:23;100855.91;;;10.38;87.37
51986;BME280;38002;53.296;6.600;2023-04-10T20:29:23;100854.09;;;10.47;89.88
51986;BME280;38002;53.296;6.600;2023-04-10T20:34:24;100834.72;;;10.50;87.76
51986;BME280;38002;53.296;6.600;2023-04-10T20:39:24;100807.88;;;10.47;85.78
51986;BME280;38002;53.296;6.600;2023-04-10T20:44:25;100796.47;;;10.43;87.30
51986;BME280;38002;53.296;6.600;2023-04-10T20:49:25;100808.03;;;10.45;88.58
51986;BME280;38002;53.296;6.600;2023-04-10T20:54:26;100813.31;;;10.47;87.49
51986;BME280;38002;53.296;6.600;2023-04-10T20:59:28;100818.56;;;10.48;88.45
51986;BME280;38002;53.296;6.600;2023-04-10T21:04:28;100797.00;;;10.47;87.03
51986;BME280;38002;53.296;6.600;2023-04-10T21:09:29;100805.81;;;10.49;87.19
51986;BME280;38002;53.296;6.600;2023-04-10T21:14:29;100801.25;;;10.50;86.77
51986;BME280;38002;53.296;6.600;2023-04-10T21:19:30;100803.09;;;10.49;86.47
51986;BME280;38002;53.296;6.600;2023-04-10T21:24:30;100798.72;;;10.48;86.95
51986;BME280;38002;53.296;6.600;2023-04-10T21:29:31;100797.66;;;10.49;86.46
51986;BME280;38002;53.296;6.600;2023-04-10T21:34:31;100801.22;;;10.41;86.87
51986;BME280;38002;53.296;6.600;2023-04-10T21:39:32;100786.09;;;10.39;86.59
51986;BME280;38002;53.296;6.600;2023-04-10T21:44:32;100794.25;;;10.39;87.43
51986;BME280;38002;53.296;6.600;2023-04-10T21:49:33;100784.75;;;10.43;85.73
51986;BME280;38002;53.296;6.600;2023-04-10T21:54:33;100783.03;;;10.42;86.27
51986;BME280;38002;53.296;6.600;2023-04-10T21:59:34;100779.63;;;10.40;86.23
51986;BME280;38002;53.296;6.600;2023-04-10T22:04:35;100769.75;;;10.31;86.84
51986;BME280;38002;53.296;6.600;2023-04-10T22:09:36;100765.97;;;10.24;86.20
51986;BME280;38002;53.296;6.600;2023-04-10T22:14:36;100776.91;;;10.14;86.88
51986;BME280;38002;53.296;6.600;2023-04-10T22:19:37;100790.44;;;10.06;86.74
51986;BME280;38002;53.296;6.600;2023-04-10T22:24:37;100790.56;;;9.96;87.04
51986;BME280;38002;53.296;6.600;2023-04-10T22:29:37;100783.06;;;9.90;86.02
51986;BME280;38002;53.296;6.600;2023-04-10T22:34:38;100779.28;;;9.83;87.68
51986;BME280;38002;53.296;6.600;2023-04-10T22:39:38;100773.47;;;9.78;87.19
51986;BME280;38002;53.296;6.600;2023-04-10T22:44:39;100759.19;;;9.76;86.32
51986;BME280;38002;53.296;6.600;2023-04-10T22:49:39;100751.22;;;9.75;86.21
51986;BME280;38002;53.296;6.600;2023-04-10T22:54:39;100755.47;;;9.77;86.50
51986;BME280;38002;53.296;6.600;2023-04-10T22:59:40;100740.88;;;9.78;85.98
51986;BME280;38002;53.296;6.600;2023-04-10T23:04:40;100748.03;;;9.79;85.95
51986;BME280;38002;53.296;6.600;2023-04-10T23:09:41;100747.69;;;9.82;87.32
51986;BME280;38002;53.296;6.600;2023-04-10T23:14:41;100730.06;;;9.86;86.13
51986;BME280;38002;53.296;6.600;2023-04-10T23:19:42;100721.59;;;9.89;86.32
51986;BME280;38002;53.296;6.600;2023-04-10T23:24:42;100719.59;;;9.91;85.51
51986;BME280;38002;53.296;6.600;2023-04-10T23:29:42;100729.59;;;9.91;87.76
51986;BME280;38002;53.296;6.600;2023-04-10T23:34:43;100736.03;;;9.90;87.21
51986;BME280;38002;53.296;6.600;2023-04-10T23:39:43;100739.06;;;9.87;85.89
51986;BME280;38002;53.296;6.600;2023-04-10T23:44:44;100738.84;;;9.80;85.85
51986;BME280;38002;53.296;6.600;2023-04-10T23:49:44;100733.69;;;9.69;84.85
51986;BME280;38002;53.296;6.600;2023-04-10T23:54:44;100738.84;;;9.54;84.25
51986;BME280;38002;53.296;6.600;2023-04-10T23:59:45;100748.09;;;9.44;83.34
